sensor_id;sensor_type;location;lat;lon;timestamp;temperature;humidity
38866;DHT22;62686;48.984;8.394;2022-08-21T00:00:06;14.60;99.90
38866;DHT22;62686;48.984;8.394;2022-08-21T00:02:37;14.60;99.90
38866;DHT22;62686;48.984;8.394;2022-08-21T00:05:06;14.60;99.90
38866;DHT22;62686;48.984;8.394;2022-08-21T00:07:34;14.50;99.90
38866;DHT22;62686;48.984;8.394;2022-08-21T00:10:04;14.40;99.90
38866;DHT22;62686;48.984;8.394;2022-08-21T00:12:33;14.50;99.90
38866;DHT22;62686;48.984;8.394;2022-08-21T00:15:01;14.40;99.90
38866;DHT22;62686;48.984;8.394;2022-08-21T00:17:29;14.30;99.90
38866;DHT22;62686;48.984;8.394;2022-08-21T00:19:59;14.30;99.90
38866;DHT22;62686;48.984;8.394;2022-08-21T00:22:27;14.30;99.90
38866;DHT22;62686;48.984;8.394;2022-08-21T00:24:56;14.40;99.90
38866;DHT22;62686;48.984;8.394;2022-08-21T00:27:24;14.40;99.90
38866;DHT22;62686;48.984;8.394;2022-08-21T00:29:52;14.40;99.90
38866;DHT22;62686;48.984;8.394;2022-08-21T00:32:22;14.40;99.90
38866;DHT22;62686;48.984;8.394;2022-08-21T00:34:51;14.40;99.90
38866;DHT22;62686;48.984;8.394;2022-08-21T00:37:21;14.30;99.90
38866;DHT22;62686;48.984;8.394;2022-08-21T00:39:49;14.20;99.90
38866;DHT22;62686;48.984;8.394;2022-08-21T00:42:18;14.10;99.90
38866;DHT22;62686;48.984;8.394;2022-08-21T00:44:48;14.10;99.90
38866;DHT22;62686;48.984;8.394;2022-08-21T00:47:17;14.00;99.90
38866;DHT22;62686;48.984;8.394;2022-08-21T00:49:46;14.00;99.90
38866;DHT22;62686;48.984;8.394;2022-08-21T00:52:18;14.00;99.90
38866;DHT22;62686;48.984;8.394;2022-08-21T00:54:49;13.90;99.90
38866;DHT22;62686;48.984;8.394;2022-08-21T00:57:22;13.90;99.90
38866;DHT22;62686;48.984;8.394;2022-08-21T00:59:54;13.90;99.90
38866;DHT22;62686;48.984;8.394;2022-08-21T01:02:23;13.70;99.90
38866;DHT22;62686;48.984;8.394;2022-08-21T01:04:51;13.70;99.90
38866;DHT22;62686;48.984;8.394;2022-08-21T01:07:20;13.70;99.90
38866;DHT22;62686;48.984;8.394;2022-08-21T01:09:49;13.70;99.90
38866;DHT22;62686;48.984;8.394;2022-08-21T01:12:19;13.70;99.90
38866;DHT22;62686;48.984;8.394;2022-08-21T01:14:47;13.70;99.90
38866;DHT22;62686;48.984;8.394;2022-08-21T01:17:16;13.70;99.90
38866;DHT22;62686;48.984;8.394;2022-08-21T01:19:45;13.70;99.90
38866;DHT22;62686;48.984;8.394;2022-08-21T01:22:15;13.70;99.90
38866;DHT22;62686;48.984;8.394;2022-08-21T01:24:43;13.60;99.90
38866;DHT22;62686;48.984;8.394;2022-08-21T01:27:11;13.50;99.90
38866;DHT22;62686;48.984;8.394;2022-08-21T01:29:51;13.40;99.90
38866;DHT22;62686;48.984;8.394;2022-08-21T01:32:20;13.40;99.90
38866;DHT22;62686;48.984;8.394;2022-08-21T01:34:51;13.40;99.90
38866;DHT22;62686;48.984;8.394;2022-08-21T01:37:21;13.40;99.90
38866;DHT22;62686;48.984;8.394;2022-08-21T01:39:49;13.30;99.90
38866;DHT22;62686;48.984;8.394;2022-08-21T01:42:18;13.20;99.90
38866;DHT22;62686;48.984;8.394;2022-08-21T01:44:46;13.20;99.90
38866;DHT22;62686;48.984;8.394;2022-08-21T01:47:16;13.10;99.90
38866;DHT22;62686;48.984;8.394;2022-08-21T01:49:44;13.10;99.90
38866;DHT22;62686;48.984;8.394;2022-08-21T01:52:13;13.10;99.90
38866;DHT22;62686;48.984;8.394;2022-08-21T01:54:43;13.00;99.90
38866;DHT22;62686;48.984;8.394;2022-08-21T01:57:12;13.00;99.90
38866;DHT22;62686;48.984;8.394;2022-08-21T01:59:41;13.00;99.90
38866;DHT22;62686;48.984;8.394;2022-08-21T02:02:09;13.00;99.90
38866;DHT22;62686;48.984;8.394;2022-08-21T02:04:37;13.00;99.90
38866;DHT22;62686;48.984;8.394;2022-08-21T02:07:05;13.00;99.90
38866;DHT22;62686;48.984;8.394;2022-08-21T02:09:34;13.00;99.90
38866;DHT22;62686;48.984;8.394;2022-08-21T02:12:04;12.90;99.90
38866;DHT22;62686;48.984;8.394;2022-08-21T02:14:32;12.90;99.90
38866;DHT22;62686;48.984;8.394;2022-08-21T02:17:01;12.90;99.90
38866;DHT22;62686;48.984;8.394;2022-08-21T02:19:29;12.90;99.90
38866;DHT22;62686;48.984;8.394;2022-08-21T02:21:57;12.90;99.90
38866;DHT22;62686;48.984;8.394;2022-08-21T02:24:25;12.90;99.90
38866;DHT22;62686;48.984;8.394;2022-08-21T02:26:54;12.90;99.90
38866;DHT22;62686;48.984;8.394;2022-08-21T02:29:23;12.80;99.90
38866;DHT22;62686;48.984;8.394;2022-08-21T02:31:52;12.80;99.90
38866;DHT22;62686;48.984;8.394;2022-08-21T02:34:20;12.80;99.90
38866;DHT22;62686;48.984;8.394;2022-08-21T02:36:49;12.80;99.90
38866;DHT22;62686;48.984;8.394;2022-08-21T02:39:17;12.80;99.90
38866;DHT22;62686;48.984;8.394;2022-08-21T02:41:46;12.80;99.90
38866;DHT22;62686;48.984;8.394;2022-08-21T02:44:14;12.70;99.90
38866;DHT22;62686;48.984;8.394;2022-08-21T02:46:43;12.70;99.90
38866;DHT22;62686;48.984;8.394;2022-08-21T02:49:11;12.70;99.90
38866;DHT22;62686;48.984;8.394;2022-08-21T02:51:40;12.70;99.90
38866;DHT22;62686;48.984;8.394;2022-08-21T02:54:08;12.60;99.90
38866;DHT22;62686;48.984;8.394;2022-08-21T02:56:36;12.60;99.90
38866;DHT22;62686;48.984;8.394;2022-08-21T02:59:04;12.60;99.90
38866;DHT22;62686;48.984;8.394;2022-08-21T03:01:32;12.60;99.90
38866;DHT22;62686;48.984;8.394;2022-08-21T03:04:02;12.60;99.90
38866;DHT22;62686;48.984;8.394;2022-08-21T03:06:31;12.60;99.90
38866;DHT22;62686;48.984;8.394;2022-08-21T03:09:00;12.60;99.90
38866;DHT22;62686;48.984;8.394;2022-08-21T03:11:28;12.70;99.90
38866;DHT22;62686;48.984;8.394;2022-08-21T03:13:56;12.60;99.90
38866;DHT22;62686;48.984;8.394;2022-08-21T03:16:24;12.60;99.90
38866;DHT22;62686;48.984;8.394;2022-08-21T03:18:53;12.60;99.90
38866;DHT22;62686;48.984;8.394;2022-08-21T03:21:22;12.50;99.90
38866;DHT22;62686;48.984;8.394;2022-08-21T03:23:50;12.40;99.90
38866;DHT22;62686;48.984;8.394;2022-08-21T03:26:20;12.50;99.90
38866;DHT22;62686;48.984;8.394;2022-08-21T03:28:49;12.50;99.90
38866;DHT22;62686;48.984;8.394;2022-08-21T03:31:17;12.40;99.90
38866;DHT22;62686;48.984;8.394;2022-08-21T03:33:46;12.30;99.90
38866;DHT22;62686;48.984;8.394;2022-08-21T03:36:14;12.20;99.90
38866;DHT22;62686;48.984;8.394;2022-08-21T03:38:44;12.20;99.90
38866;DHT22;62686;48.984;8.394;2022-08-21T03:41:12;12.20;99.90
38866;DHT22;62686;48.984;8.394;2022-08-21T03:43:41;12.10;99.90
38866;DHT22;62686;48.984;8.394;2022-08-21T03:46:10;12.10;99.90
38866;DHT22;62686;48.984;8.394;2022-08-21T03:48:38;12.10;99.90
38866;DHT22;62686;48.984;8.394;2022-08-21T03:51:07;12.10;99.90
38866;DHT22;62686;48.984;8.394;2022-08-21T03:53:35;12.10;99.90
38866;DHT22;62686;48.984;8.394;2022-08-21T03:56:06;12.10;99.90
38866;DHT22;62686;48.984;8.394;2022-08-21T03:58:34;12.00;99.90
38866;DHT22;62686;48.984;8.394;2022-08-21T04:01:03;12.00;99.90
38866;DHT22;62686;48.984;8.394;2022-08-21T04:03:35;12.00;99.90
38866;DHT22;62686;48.984;8.394;2022-08-21T04:06:04;12.00;99.90
38866;DHT22;62686;48.984;8.394;2022-08-21T04:08:33;12.00;99.90
38866;DHT22;62686;48.984;8.394;2022-08-21T04:11:01;11.90;99.90
38866;DHT22;62686;48.984;8.394;2022-08-21T04:13:31;11.80;99.90
38866;DHT22;62686;48.984;8.394;2022-08-21T04:16:00;11.80;99.90
38866;DHT22;62686;48.984;8.394;2022-08-21T04:18:28;11.80;99.90
38866;DHT22;62686;48.984;8.394;2022-08-21T04:20:58;11.90;99.90
38866;DHT22;62686;48.984;8.394;2022-08-21T04:23:26;11.90;99.90
38866;DHT22;62686;48.984;8.394;2022-08-21T04:25:55;11.90;99.90
38866;DHT22;62686;48.984;8.394;2022-08-21T04:28:26;11.90;99.90
38866;DHT22;62686;48.984;8.394;2022-08-21T04:30:56;11.90;99.90
38866;DHT22;62686;48.984;8.394;2022-08-21T04:33:25;11.90;99.90
38866;DHT22;62686;48.984;8.394;2022-08-21T04:35:53;11.80;99.90
38866;DHT22;62686;48.984;8.394;2022-08-21T04:38:22;11.90;99.90
38866;DHT22;62686;48.984;8.394;2022-08-21T04:40:51;11.90;99.90
38866;DHT22;62686;48.984;8.394;2022-08-21T04:43:20;11.90;99.90
38866;DHT22;62686;48.984;8.394;2022-08-21T04:45:51;12.00;99.90
38866;DHT22;62686;48.984;8.394;2022-08-21T04:48:22;12.00;99.90
38866;DHT22;62686;48.984;8.394;2022-08-21T04:50:56;12.00;99.90
38866;DHT22;62686;48.984;8.394;2022-08-21T04:53:29;12.10;99.90
38866;DHT22;62686;48.984;8.394;2022-08-21T04:56:01;12.10;99.90
38866;DHT22;62686;48.984;8.394;2022-08-21T04:58:31;12.10;99.90
38866;DHT22;62686;48.984;8.394;2022-08-21T05:01:00;12.20;99.90
38866;DHT22;62686;48.984;8.394;2022-08-21T05:03:31;12.30;99.90
38866;DHT22;62686;48.984;8.394;2022-08-21T05:06:04;12.40;99.90
38866;DHT22;62686;48.984;8.394;2022-08-21T05:08:33;12.50;99.90
38866;DHT22;62686;48.984;8.394;2022-08-21T05:11:02;12.60;99.90
38866;DHT22;62686;48.984;8.394;2022-08-21T05:13:30;12.60;99.90
38866;DHT22;62686;48.984;8.394;2022-08-21T05:15:59;12.70;99.90
38866;DHT22;62686;48.984;8.394;2022-08-21T05:18:27;12.90;99.90
38866;DHT22;62686;48.984;8.394;2022-08-21T05:20:57;12.90;99.90
38866;DHT22;62686;48.984;8.394;2022-08-21T05:23:25;13.10;99.90
38866;DHT22;62686;48.984;8.394;2022-08-21T05:25:53;13.20;99.90
38866;DHT22;62686;48.984;8.394;2022-08-21T05:28:22;13.40;99.90
38866;DHT22;62686;48.984;8.394;2022-08-21T05:30:50;13.50;99.90
38866;DHT22;62686;48.984;8.394;2022-08-21T05:33:19;13.70;99.90
38866;DHT22;62686;48.984;8.394;2022-08-21T05:35:49;13.90;99.90
38866;DHT22;62686;48.984;8.394;2022-08-21T05:38:19;14.10;99.90
38866;DHT22;62686;48.984;8.394;2022-08-21T05:40:48;14.30;99.90
38866;DHT22;62686;48.984;8.394;2022-08-21T05:43:16;14.50;99.90
38866;DHT22;62686;48.984;8.394;2022-08-21T05:45:44;14.80;99.90
38866;DHT22;62686;48.984;8.394;2022-08-21T05:48:15;15.10;99.90
38866;DHT22;62686;48.984;8.394;2022-08-21T05:50:44;15.30;99.90
38866;DHT22;62686;48.984;8.394;2022-08-21T05:53:13;15.40;99.90
38866;DHT22;62686;48.984;8.394;2022-08-21T05:55:44;15.60;99.90
38866;DHT22;62686;48.984;8.394;2022-08-21T05:58:13;15.80;99.90
38866;DHT22;62686;48.984;8.394;2022-08-21T06:00:42;15.90;99.90
38866;DHT22;62686;48.984;8.394;2022-08-21T06:03:11;16.00;99.90
38866;DHT22;62686;48.984;8.394;2022-08-21T06:05:40;16.20;99.90
38866;DHT22;62686;48.984;8.394;2022-08-21T06:08:08;16.40;99.90
38866;DHT22;62686;48.984;8.394;2022-08-21T06:10:36;16.60;99.90
38866;DHT22;62686;48.984;8.394;2022-08-21T06:13:06;16.90;99.90
38866;DHT22;62686;48.984;8.394;2022-08-21T06:15:34;17.30;99.90
38866;DHT22;62686;48.984;8.394;2022-08-21T06:18:03;18.00;99.90
38866;DHT22;62686;48.984;8.394;2022-08-21T06:20:31;18.90;99.90
38866;DHT22;62686;48.984;8.394;2022-08-21T06:23:00;20.10;99.90
38866;DHT22;62686;48.984;8.394;2022-08-21T06:25:29;21.60;99.90
38866;DHT22;62686;48.984;8.394;2022-08-21T06:28:01;22.90;99.90
38866;DHT22;62686;48.984;8.394;2022-08-21T06:30:31;24.40;99.90
38866;DHT22;62686;48.984;8.394;2022-08-21T06:32:59;25.40;99.90
38866;DHT22;62686;48.984;8.394;2022-08-21T06:35:29;26.20;99.90
38866;DHT22;62686;48.984;8.394;2022-08-21T06:37:57;27.00;99.10
38866;DHT22;62686;48.984;8.394;2022-08-21T06:40:26;27.60;97.40
38866;DHT22;62686;48.984;8.394;2022-08-21T06:42:54;28.30;95.30
38866;DHT22;62686;48.984;8.394;2022-08-21T06:45:22;28.90;93.00
38866;DHT22;62686;48.984;8.394;2022-08-21T06:47:52;29.50;92.70
38866;DHT22;62686;48.984;8.394;2022-08-21T06:50:20;30.10;90.80
38866;DHT22;62686;48.984;8.394;2022-08-21T06:52:48;30.50;89.10
38866;DHT22;62686;48.984;8.394;2022-08-21T06:55:17;30.40;85.90
38866;DHT22;62686;48.984;8.394;2022-08-21T06:57:45;30.20;85.90
38866;DHT22;62686;48.984;8.394;2022-08-21T07:00:13;30.00;87.10
38866;DHT22;62686;48.984;8.394;2022-08-21T07:02:42;30.40;86.30
38866;DHT22;62686;48.984;8.394;2022-08-21T07:05:11;30.50;82.00
38866;DHT22;62686;48.984;8.394;2022-08-21T07:07:40;31.20;80.60
38866;DHT22;62686;48.984;8.394;2022-08-21T07:10:08;31.30;80.70
38866;DHT22;62686;48.984;8.394;2022-08-21T07:12:36;31.30;80.20
38866;DHT22;62686;48.984;8.394;2022-08-21T07:15:08;31.10;78.10
38866;DHT22;62686;48.984;8.394;2022-08-21T07:17:36;30.80;80.30
38866;DHT22;62686;48.984;8.394;2022-08-21T07:20:06;31.50;78.20
38866;DHT22;62686;48.984;8.394;2022-08-21T07:22:37;32.20;77.10
38866;DHT22;62686;48.984;8.394;2022-08-21T07:25:07;32.00;77.30
38866;DHT22;62686;48.984;8.394;2022-08-21T07:27:35;32.00;77.40
38866;DHT22;62686;48.984;8.394;2022-08-21T07:30:04;32.80;73.90
38866;DHT22;62686;48.984;8.394;2022-08-21T07:32:33;33.00;73.10
38866;DHT22;62686;48.984;8.394;2022-08-21T07:35:01;33.40;72.30
38866;DHT22;62686;48.984;8.394;2022-08-21T07:37:29;33.60;71.90
38866;DHT22;62686;48.984;8.394;2022-08-21T07:40:02;33.60;70.70
38866;DHT22;62686;48.984;8.394;2022-08-21T07:42:32;33.90;71.30
38866;DHT22;62686;48.984;8.394;2022-08-21T07:45:00;33.60;69.80
38866;DHT22;62686;48.984;8.394;2022-08-21T07:47:28;33.80;70.20
38866;DHT22;62686;48.984;8.394;2022-08-21T07:49:56;33.30;67.80
38866;DHT22;62686;48.984;8.394;2022-08-21T07:52:24;32.70;72.20
38866;DHT22;62686;48.984;8.394;2022-08-21T07:54:53;32.10;72.90
38866;DHT22;62686;48.984;8.394;2022-08-21T07:57:22;31.60;72.80
38866;DHT22;62686;48.984;8.394;2022-08-21T07:59:50;32.00;71.40
38866;DHT22;62686;48.984;8.394;2022-08-21T08:02:23;32.40;70.70
38866;DHT22;62686;48.984;8.394;2022-08-21T08:04:51;33.40;69.90
38866;DHT22;62686;48.984;8.394;2022-08-21T08:07:20;34.20;69.10
38866;DHT22;62686;48.984;8.394;2022-08-21T08:09:48;34.40;67.10
38866;DHT22;62686;48.984;8.394;2022-08-21T08:12:17;33.10;67.30
38866;DHT22;62686;48.984;8.394;2022-08-21T08:14:47;33.70;68.40
38866;DHT22;62686;48.984;8.394;2022-08-21T08:17:15;34.00;66.40
38866;DHT22;62686;48.984;8.394;2022-08-21T08:19:43;34.40;65.70
38866;DHT22;62686;48.984;8.394;2022-08-21T08:22:15;34.80;65.60
38866;DHT22;62686;48.984;8.394;2022-08-21T08:24:46;34.80;65.50
38866;DHT22;62686;48.984;8.394;2022-08-21T08:27:15;34.90;64.10
38866;DHT22;62686;48.984;8.394;2022-08-21T08:29:44;35.30;63.90
38866;DHT22;62686;48.984;8.394;2022-08-21T08:32:14;35.00;61.20
38866;DHT22;62686;48.984;8.394;2022-08-21T08:34:42;34.80;63.70
38866;DHT22;62686;48.984;8.394;2022-08-21T08:37:11;35.50;62.60
38866;DHT22;62686;48.984;8.394;2022-08-21T08:39:39;35.30;60.70
38866;DHT22;62686;48.984;8.394;2022-08-21T08:42:11;35.60;59.60
38866;DHT22;62686;48.984;8.394;2022-08-21T08:44:40;35.40;61.30
38866;DHT22;62686;48.984;8.394;2022-08-21T08:47:10;36.00;61.10
38866;DHT22;62686;48.984;8.394;2022-08-21T08:49:49;36.40;59.60
38866;DHT22;62686;48.984;8.394;2022-08-21T08:52:26;36.10;58.40
38866;DHT22;62686;48.984;8.394;2022-08-21T08:55:02;34.20;61.90
38866;DHT22;62686;48.984;8.394;2022-08-21T08:57:32;34.20;61.40
38866;DHT22;62686;48.984;8.394;2022-08-21T09:00:04;33.80;60.90
38866;DHT22;62686;48.984;8.394;2022-08-21T09:02:34;34.70;60.80
38866;DHT22;62686;48.984;8.394;2022-08-21T09:05:07;35.70;59.80
38866;DHT22;62686;48.984;8.394;2022-08-21T09:07:45;35.60;59.10
38866;DHT22;62686;48.984;8.394;2022-08-21T09:10:18;36.20;57.90
38866;DHT22;62686;48.984;8.394;2022-08-21T09:12:54;36.70;58.40
38866;DHT22;62686;48.984;8.394;2022-08-21T09:15:30;37.70;56.30
38866;DHT22;62686;48.984;8.394;2022-08-21T09:18:19;38.00;55.70
38866;DHT22;62686;48.984;8.394;2022-08-21T09:21:03;37.60;56.00
38866;DHT22;62686;48.984;8.394;2022-08-21T09:23:42;37.90;56.20
38866;DHT22;62686;48.984;8.394;2022-08-21T09:26:13;38.20;55.60
38866;DHT22;62686;48.984;8.394;2022-08-21T09:28:42;36.90;54.30
38866;DHT22;62686;48.984;8.394;2022-08-21T09:31:16;35.20;57.30
38866;DHT22;62686;48.984;8.394;2022-08-21T09:33:49;34.80;57.20
38866;DHT22;62686;48.984;8.394;2022-08-21T09:36:25;33.80;59.60
38866;DHT22;62686;48.984;8.394;2022-08-21T09:38:55;33.30;59.70
38866;DHT22;62686;48.984;8.394;2022-08-21T09:41:28;32.70;62.00
38866;DHT22;62686;48.984;8.394;2022-08-21T09:43:58;33.20;62.80
38866;DHT22;62686;48.984;8.394;2022-08-21T09:46:27;34.00;60.40
38866;DHT22;62686;48.984;8.394;2022-08-21T09:48:57;34.20;59.30
38866;DHT22;62686;48.984;8.394;2022-08-21T09:51:29;34.70;58.50
38866;DHT22;62686;48.984;8.394;2022-08-21T09:54:15;34.80;57.90
38866;DHT22;62686;48.984;8.394;2022-08-21T09:56:53;33.90;58.70
38866;DHT22;62686;48.984;8.394;2022-08-21T09:59:41;32.40;62.40
38866;DHT22;62686;48.984;8.394;2022-08-21T10:02:26;31.70;64.90
38866;DHT22;62686;48.984;8.394;2022-08-21T10:04:56;32.20;62.50
38866;DHT22;62686;48.984;8.394;2022-08-21T10:07:29;32.10;62.10
38866;DHT22;62686;48.984;8.394;2022-08-21T10:10:03;31.60;63.00
38866;DHT22;62686;48.984;8.394;2022-08-21T10:12:41;32.20;63.60
38866;DHT22;62686;48.984;8.394;2022-08-21T10:15:18;32.40;61.60
38866;DHT22;62686;48.984;8.394;2022-08-21T10:17:54;31.90;64.00
38866;DHT22;62686;48.984;8.394;2022-08-21T10:20:34;31.10;64.00
38866;DHT22;62686;48.984;8.394;2022-08-21T10:23:21;29.70;65.70
38866;DHT22;62686;48.984;8.394;2022-08-21T10:25:58;29.10;67.50
38866;DHT22;62686;48.984;8.394;2022-08-21T10:28:32;28.80;67.70
38866;DHT22;62686;48.984;8.394;2022-08-21T10:31:12;28.50;70.20
38866;DHT22;62686;48.984;8.394;2022-08-21T10:33:45;28.40;71.20
38866;DHT22;62686;48.984;8.394;2022-08-21T10:36:18;28.20;69.80
38866;DHT22;62686;48.984;8.394;2022-08-21T10:38:59;28.00;69.70
38866;DHT22;62686;48.984;8.394;2022-08-21T10:42:02;28.30;71.30
38866;DHT22;62686;48.984;8.394;2022-08-21T10:44:38;28.50;70.20
38866;DHT22;62686;48.984;8.394;2022-08-21T10:47:14;28.80;70.10
38866;DHT22;62686;48.984;8.394;2022-08-21T10:49:48;28.90;68.50
38866;DHT22;62686;48.984;8.394;2022-08-21T10:52:34;29.00;67.60
38866;DHT22;62686;48.984;8.394;2022-08-21T10:55:09;29.10;69.30
38866;DHT22;62686;48.984;8.394;2022-08-21T10:57:42;29.10;66.80
38866;DHT22;62686;48.984;8.394;2022-08-21T11:00:14;29.30;69.90
38866;DHT22;62686;48.984;8.394;2022-08-21T11:02:50;29.50;68.10
38866;DHT22;62686;48.984;8.394;2022-08-21T11:05:25;29.60;68.40
38866;DHT22;62686;48.984;8.394;2022-08-21T11:07:59;29.80;67.60
38866;DHT22;62686;48.984;8.394;2022-08-21T11:10:33;30.30;66.80
38866;DHT22;62686;48.984;8.394;2022-08-21T11:13:07;31.90;64.60
38866;DHT22;62686;48.984;8.394;2022-08-21T11:15:41;33.70;61.60
38866;DHT22;62686;48.984;8.394;2022-08-21T11:18:19;34.40;59.40
38866;DHT22;62686;48.984;8.394;2022-08-21T11:20:52;35.20;58.40
38866;DHT22;62686;48.984;8.394;2022-08-21T11:23:26;35.90;56.90
38866;DHT22;62686;48.984;8.394;2022-08-21T11:26:02;36.30;55.90
38866;DHT22;62686;48.984;8.394;2022-08-21T11:28:34;36.40;56.70
38866;DHT22;62686;48.984;8.394;2022-08-21T11:31:15;36.60;55.50
38866;DHT22;62686;48.984;8.394;2022-08-21T11:33:53;36.30;54.30
38866;DHT22;62686;48.984;8.394;2022-08-21T11:36:30;34.20;56.50
38866;DHT22;62686;48.984;8.394;2022-08-21T11:39:09;33.70;58.10
38866;DHT22;62686;48.984;8.394;2022-08-21T11:41:45;34.20;57.60
38866;DHT22;62686;48.984;8.394;2022-08-21T11:44:21;35.10;56.00
38866;DHT22;62686;48.984;8.394;2022-08-21T11:46:59;36.20;55.20
38866;DHT22;62686;48.984;8.394;2022-08-21T11:49:39;36.70;54.60
38866;DHT22;62686;48.984;8.394;2022-08-21T11:52:13;37.90;53.10
38866;DHT22;62686;48.984;8.394;2022-08-21T11:54:46;38.00;52.50
38866;DHT22;62686;48.984;8.394;2022-08-21T11:57:19;37.60;52.70
38866;DHT22;62686;48.984;8.394;2022-08-21T11:59:52;38.30;52.60
38866;DHT22;62686;48.984;8.394;2022-08-21T12:02:28;37.70;51.10
38866;DHT22;62686;48.984;8.394;2022-08-21T12:05:02;38.60;51.00
38866;DHT22;62686;48.984;8.394;2022-08-21T12:07:35;38.90;50.30
38866;DHT22;62686;48.984;8.394;2022-08-21T12:10:06;39.60;50.70
38866;DHT22;62686;48.984;8.394;2022-08-21T12:12:38;39.60;49.40
38866;DHT22;62686;48.984;8.394;2022-08-21T12:15:25;39.60;49.20
38866;DHT22;62686;48.984;8.394;2022-08-21T12:17:57;39.70;48.70
38866;DHT22;62686;48.984;8.394;2022-08-21T12:20:44;39.70;48.70
38866;DHT22;62686;48.984;8.394;2022-08-21T12:23:27;39.80;48.40
38866;DHT22;62686;48.984;8.394;2022-08-21T12:26:03;39.70;48.20
38866;DHT22;62686;48.984;8.394;2022-08-21T12:28:39;38.60;48.70
38866;DHT22;62686;48.984;8.394;2022-08-21T12:31:22;38.00;49.60
38866;DHT22;62686;48.984;8.394;2022-08-21T12:33:55;37.70;50.00
38866;DHT22;62686;48.984;8.394;2022-08-21T12:36:29;38.00;50.70
38866;DHT22;62686;48.984;8.394;2022-08-21T12:39:10;37.50;49.70
38866;DHT22;62686;48.984;8.394;2022-08-21T12:41:48;37.70;48.90
38866;DHT22;62686;48.984;8.394;2022-08-21T12:44:22;38.10;49.40
38866;DHT22;62686;48.984;8.394;2022-08-21T12:46:56;39.20;48.20
38866;DHT22;62686;48.984;8.394;2022-08-21T12:49:30;40.00;46.90
38866;DHT22;62686;48.984;8.394;2022-08-21T12:52:04;40.10;46.40
38866;DHT22;62686;48.984;8.394;2022-08-21T12:54:39;39.70;46.70
38866;DHT22;62686;48.984;8.394;2022-08-21T12:57:08;39.80;46.20
38866;DHT22;62686;48.984;8.394;2022-08-21T12:59:46;38.40;46.00
38866;DHT22;62686;48.984;8.394;2022-08-21T13:02:21;38.90;47.00
38866;DHT22;62686;48.984;8.394;2022-08-21T13:04:50;38.40;45.90
38866;DHT22;62686;48.984;8.394;2022-08-21T13:07:25;37.80;47.50
38866;DHT22;62686;48.984;8.394;2022-08-21T13:09:59;37.90;47.70
38866;DHT22;62686;48.984;8.394;2022-08-21T13:12:28;37.90;47.40
38866;DHT22;62686;48.984;8.394;2022-08-21T13:15:02;37.70;47.50
38866;DHT22;62686;48.984;8.394;2022-08-21T13:17:33;37.20;48.40
38866;DHT22;62686;48.984;8.394;2022-08-21T13:20:05;36.80;48.00
38866;DHT22;62686;48.984;8.394;2022-08-21T13:22:40;36.60;47.30
38866;DHT22;62686;48.984;8.394;2022-08-21T13:25:11;37.30;47.50
38866;DHT22;62686;48.984;8.394;2022-08-21T13:27:40;38.00;46.10
38866;DHT22;62686;48.984;8.394;2022-08-21T13:30:13;38.20;46.90
38866;DHT22;62686;48.984;8.394;2022-08-21T13:32:44;38.50;47.20
38866;DHT22;62686;48.984;8.394;2022-08-21T13:35:16;38.30;46.40
38866;DHT22;62686;48.984;8.394;2022-08-21T13:37:46;38.50;46.80
38866;DHT22;62686;48.984;8.394;2022-08-21T13:40:18;38.60;47.10
38866;DHT22;62686;48.984;8.394;2022-08-21T13:42:47;39.00;47.10
38866;DHT22;62686;48.984;8.394;2022-08-21T13:45:23;38.70;47.30
38866;DHT22;62686;48.984;8.394;2022-08-21T13:47:52;38.10;47.90
38866;DHT22;62686;48.984;8.394;2022-08-21T13:50:23;38.30;47.60
38866;DHT22;62686;48.984;8.394;2022-08-21T13:52:58;38.30;47.40
38866;DHT22;62686;48.984;8.394;2022-08-21T13:55:36;38.20;46.90
38866;DHT22;62686;48.984;8.394;2022-08-21T13:58:05;38.70;47.10
38866;DHT22;62686;48.984;8.394;2022-08-21T14:00:43;37.60;48.80
38866;DHT22;62686;48.984;8.394;2022-08-21T14:03:15;37.00;48.70
38866;DHT22;62686;48.984;8.394;2022-08-21T14:05:51;37.90;47.70
38866;DHT22;62686;48.984;8.394;2022-08-21T14:08:24;38.40;47.20
38866;DHT22;62686;48.984;8.394;2022-08-21T14:10:55;38.40;47.60
38866;DHT22;62686;48.984;8.394;2022-08-21T14:13:29;38.70;47.70
38866;DHT22;62686;48.984;8.394;2022-08-21T14:16:03;38.60;46.90
38866;DHT22;62686;48.984;8.394;2022-08-21T14:18:44;38.80;46.30
38866;DHT22;62686;48.984;8.394;2022-08-21T14:21:13;39.10;46.30
38866;DHT22;62686;48.984;8.394;2022-08-21T14:23:41;39.80;44.70
38866;DHT22;62686;48.984;8.394;2022-08-21T14:26:10;40.10;45.40
38866;DHT22;62686;48.984;8.394;2022-08-21T14:28:40;39.80;44.20
38866;DHT22;62686;48.984;8.394;2022-08-21T14:31:16;39.50;45.10
38866;DHT22;62686;48.984;8.394;2022-08-21T14:33:45;39.50;45.20
38866;DHT22;62686;48.984;8.394;2022-08-21T14:36:14;38.80;44.60
38866;DHT22;62686;48.984;8.394;2022-08-21T14:38:42;38.00;45.40
38866;DHT22;62686;48.984;8.394;2022-08-21T14:41:15;37.00;45.70
38866;DHT22;62686;48.984;8.394;2022-08-21T14:43:45;37.10;46.30
38866;DHT22;62686;48.984;8.394;2022-08-21T14:46:21;37.10;46.70
38866;DHT22;62686;48.984;8.394;2022-08-21T14:48:50;36.90;47.30
38866;DHT22;62686;48.984;8.394;2022-08-21T14:51:19;37.50;46.90
38866;DHT22;62686;48.984;8.394;2022-08-21T14:53:48;38.30;45.90
38866;DHT22;62686;48.984;8.394;2022-08-21T14:56:16;37.40;44.80
38866;DHT22;62686;48.984;8.394;2022-08-21T14:58:47;37.50;45.40
38866;DHT22;62686;48.984;8.394;2022-08-21T15:01:19;37.40;45.00
38866;DHT22;62686;48.984;8.394;2022-08-21T15:03:49;36.30;46.70
38866;DHT22;62686;48.984;8.394;2022-08-21T15:06:18;35.00;46.90
38866;DHT22;62686;48.984;8.394;2022-08-21T15:08:47;35.10;47.50
38866;DHT22;62686;48.984;8.394;2022-08-21T15:11:18;35.40;47.10
38866;DHT22;62686;48.984;8.394;2022-08-21T15:13:47;35.30;47.10
38866;DHT22;62686;48.984;8.394;2022-08-21T15:16:18;35.10;47.20
38866;DHT22;62686;48.984;8.394;2022-08-21T15:18:47;34.60;48.00
38866;DHT22;62686;48.984;8.394;2022-08-21T15:21:15;34.50;48.20
38866;DHT22;62686;48.984;8.394;2022-08-21T15:23:43;34.10;48.30
38866;DHT22;62686;48.984;8.394;2022-08-21T15:26:11;33.40;49.70
38866;DHT22;62686;48.984;8.394;2022-08-21T15:28:40;32.50;50.40
38866;DHT22;62686;48.984;8.394;2022-08-21T15:31:09;32.30;51.50
38866;DHT22;62686;48.984;8.394;2022-08-21T15:33:38;32.30;51.20
38866;DHT22;62686;48.984;8.394;2022-08-21T15:36:07;32.30;51.70
38866;DHT22;62686;48.984;8.394;2022-08-21T15:38:35;32.60;51.00
38866;DHT22;62686;48.984;8.394;2022-08-21T15:41:04;32.40;51.00
38866;DHT22;62686;48.984;8.394;2022-08-21T15:43:37;32.10;51.00
38866;DHT22;62686;48.984;8.394;2022-08-21T15:46:10;32.00;52.00
38866;DHT22;62686;48.984;8.394;2022-08-21T15:48:42;31.30;51.20
38866;DHT22;62686;48.984;8.394;2022-08-21T15:51:11;30.80;52.60
38866;DHT22;62686;48.984;8.394;2022-08-21T15:53:40;30.50;53.30